Marvel Cave Park, Missouri
Current Conditions -  °F | °C
As of 7:35 PM on Saturday 20 Dec 2014 (Local Time) from KFWB Reporting Station
Haze Haze  
Wind Chill: 38°   Ceiling: 2300
Heat Index: 41°   Visibility: 3mi
Dew Point: 41°   Wind: 5mph
Humidity: 100%   Direction: 130°SE
Pressure: 30.19"   Gusts: NA
Location:  36.6858°N, 93.2638°W
Report Text: KFWB 210135Z AUTO 13004KT 3SM BR OVC023 05/05 A3019 RMK AO2
Loading
Personal Weather Stations






























Interactive Weather Map New forecast layout! Learn more

10-Day Weather Forecast

Advertisements
Track Severe Weather on mobile